sensor_id;sensor_type;location;lat;lon;timestamp;P1;durP1;ratioP1;P2;durP2;ratioP2
69358;SDS011;56520;49.066;8.660;2023-05-10T00:01:38;1.58;;;0.70;;
69358;SDS011;56520;49.066;8.660;2023-05-10T00:04:03;1.02;;;0.60;;
69358;SDS011;56520;49.066;8.660;2023-05-10T00:06:29;1.13;;;0.65;;
69358;SDS011;56520;49.066;8.660;2023-05-10T00:08:55;0.57;;;0.50;;
69358;SDS011;56520;49.066;8.660;2023-05-10T00:11:20;3.08;;;0.70;;
69358;SDS011;56520;49.066;8.660;2023-05-10T00:13:46;2.13;;;0.70;;
69358;SDS011;56520;49.066;8.660;2023-05-10T00:16:12;1.17;;;0.60;;
69358;SDS011;56520;49.066;8.660;2023-05-10T00:18:38;1.73;;;0.63;;
69358;SDS011;56520;49.066;8.660;2023-05-10T00:21:03;0.98;;;0.55;;
69358;SDS011;56520;49.066;8.660;2023-05-10T00:23:29;1.67;;;0.60;;
69358;SDS011;56520;49.066;8.660;2023-05-10T00:25:55;1.10;;;0.60;;
69358;SDS011;56520;49.066;8.660;2023-05-10T00:28:20;1.23;;;0.55;;
69358;SDS011;56520;49.066;8.660;2023-05-10T00:30:46;1.40;;;0.60;;
69358;SDS011;56520;49.066;8.660;2023-05-10T00:33:11;1.02;;;0.55;;
69358;SDS011;56520;49.066;8.660;2023-05-10T00:35:37;1.42;;;0.63;;
69358;SDS011;56520;49.066;8.660;2023-05-10T00:38:03;1.58;;;0.52;;
69358;SDS011;56520;49.066;8.660;2023-05-10T00:40:28;1.05;;;0.45;;
69358;SDS011;56520;49.066;8.660;2023-05-10T00:42:55;0.75;;;0.40;;
69358;SDS011;56520;49.066;8.660;2023-05-10T00:45:21;1.30;;;0.52;;
69358;SDS011;56520;49.066;8.660;2023-05-10T00:47:46;0.70;;;0.45;;
69358;SDS011;56520;49.066;8.660;2023-05-10T00:50:12;1.33;;;0.70;;
69358;SDS011;56520;49.066;8.660;2023-05-10T00:52:39;0.40;;;0.30;;
69358;SDS011;56520;49.066;8.660;2023-05-10T00:55:05;1.20;;;0.55;;
69358;SDS011;56520;49.066;8.660;2023-05-10T00:57:31;2.55;;;0.70;;
69358;SDS011;56520;49.066;8.660;2023-05-10T00:59:57;3.65;;;0.60;;
69358;SDS011;56520;49.066;8.660;2023-05-10T01:02:24;1.65;;;0.70;;
69358;SDS011;56520;49.066;8.660;2023-05-10T01:04:49;1.10;;;0.55;;
69358;SDS011;56520;49.066;8.660;2023-05-10T01:07:15;1.23;;;0.52;;
69358;SDS011;56520;49.066;8.660;2023-05-10T01:13:02;1.45;;;0.60;;
69358;SDS011;56520;49.066;8.660;2023-05-10T01:15:28;2.85;;;0.90;;
69358;SDS011;56520;49.066;8.660;2023-05-10T01:17:54;1.23;;;0.50;;
69358;SDS011;56520;49.066;8.660;2023-05-10T01:20:21;2.33;;;0.70;;
69358;SDS011;56520;49.066;8.660;2023-05-10T01:23:04;1.60;;;0.73;;
69358;SDS011;56520;49.066;8.660;2023-05-10T01:25:49;1.10;;;0.55;;
69358;SDS011;56520;49.066;8.660;2023-05-10T01:28:47;2.20;;;0.82;;
69358;SDS011;56520;49.066;8.660;2023-05-10T01:34:25;2.78;;;0.95;;
69358;SDS011;56520;49.066;8.660;2023-05-10T01:39:32;1.88;;;0.80;;
69358;SDS011;56520;49.066;8.660;2023-05-10T01:42:14;1.85;;;0.80;;
69358;SDS011;56520;49.066;8.660;2023-05-10T01:44:54;2.33;;;0.80;;
69358;SDS011;56520;49.066;8.660;2023-05-10T01:47:30;2.38;;;0.80;;
69358;SDS011;56520;49.066;8.660;2023-05-10T01:50:24;1.65;;;0.70;;
69358;SDS011;56520;49.066;8.660;2023-05-10T01:52:54;1.80;;;0.70;;
69358;SDS011;56520;49.066;8.660;2023-05-10T01:55:23;2.05;;;0.90;;
69358;SDS011;56520;49.066;8.660;2023-05-10T01:57:52;2.65;;;1.00;;
69358;SDS011;56520;49.066;8.660;2023-05-10T02:00:22;1.27;;;0.73;;
69358;SDS011;56520;49.066;8.660;2023-05-10T02:02:49;1.70;;;0.73;;
69358;SDS011;56520;49.066;8.660;2023-05-10T02:05:16;2.00;;;0.80;;
69358;SDS011;56520;49.066;8.660;2023-05-10T02:07:43;1.80;;;0.80;;
69358;SDS011;56520;49.066;8.660;2023-05-10T02:10:10;3.20;;;0.93;;
69358;SDS011;56520;49.066;8.660;2023-05-10T02:12:39;2.33;;;0.90;;
69358;SDS011;56520;49.066;8.660;2023-05-10T02:15:10;2.15;;;0.90;;
69358;SDS011;56520;49.066;8.660;2023-05-10T02:17:37;2.40;;;0.88;;
69358;SDS011;56520;49.066;8.660;2023-05-10T02:20:04;2.80;;;1.00;;
69358;SDS011;56520;49.066;8.660;2023-05-10T02:22:34;3.15;;;1.10;;
69358;SDS011;56520;49.066;8.660;2023-05-10T02:25:01;2.95;;;1.05;;
69358;SDS011;56520;49.066;8.660;2023-05-10T02:27:28;3.42;;;1.20;;
69358;SDS011;56520;49.066;8.660;2023-05-10T02:29:55;2.88;;;1.00;;
69358;SDS011;56520;49.066;8.660;2023-05-10T02:32:22;3.25;;;1.17;;
69358;SDS011;56520;49.066;8.660;2023-05-10T02:34:51;3.13;;;1.20;;
69358;SDS011;56520;49.066;8.660;2023-05-10T02:37:20;3.83;;;1.15;;
69358;SDS011;56520;49.066;8.660;2023-05-10T02:39:47;4.47;;;1.20;;
69358;SDS011;56520;49.066;8.660;2023-05-10T02:42:22;4.65;;;1.40;;
69358;SDS011;56520;49.066;8.660;2023-05-10T02:44:52;3.63;;;1.40;;
69358;SDS011;56520;49.066;8.660;2023-05-10T02:47:21;4.82;;;1.60;;
69358;SDS011;56520;49.066;8.660;2023-05-10T02:49:46;2.92;;;1.10;;
69358;SDS011;56520;49.066;8.660;2023-05-10T02:52:12;3.63;;;1.38;;
69358;SDS011;56520;49.066;8.660;2023-05-10T02:54:43;3.92;;;1.40;;
69358;SDS011;56520;49.066;8.660;2023-05-10T02:57:11;3.85;;;1.40;;
69358;SDS011;56520;49.066;8.660;2023-05-10T02:59:43;4.88;;;1.42;;
69358;SDS011;56520;49.066;8.660;2023-05-10T03:02:10;4.78;;;1.40;;
69358;SDS011;56520;49.066;8.660;2023-05-10T03:04:37;4.70;;;1.58;;
69358;SDS011;56520;49.066;8.660;2023-05-10T03:07:02;3.80;;;1.30;;
69358;SDS011;56520;49.066;8.660;2023-05-10T03:09:28;6.40;;;1.58;;
69358;SDS011;56520;49.066;8.660;2023-05-10T03:17:10;4.28;;;1.40;;
69358;SDS011;56520;49.066;8.660;2023-05-10T03:19:48;4.80;;;1.60;;
69358;SDS011;56520;49.066;8.660;2023-05-10T03:22:27;5.03;;;1.60;;
69358;SDS011;56520;49.066;8.660;2023-05-10T03:25:00;4.95;;;1.70;;
69358;SDS011;56520;49.066;8.660;2023-05-10T03:27:29;4.20;;;1.60;;
69358;SDS011;56520;49.066;8.660;2023-05-10T03:29:55;4.20;;;1.60;;
69358;SDS011;56520;49.066;8.660;2023-05-10T03:32:21;4.38;;;1.58;;
69358;SDS011;56520;49.066;8.660;2023-05-10T03:34:50;4.65;;;1.60;;
69358;SDS011;56520;49.066;8.660;2023-05-10T03:37:16;4.68;;;1.70;;
69358;SDS011;56520;49.066;8.660;2023-05-10T03:39:41;5.35;;;1.58;;
69358;SDS011;56520;49.066;8.660;2023-05-10T03:42:06;4.85;;;1.33;;
69358;SDS011;56520;49.066;8.660;2023-05-10T03:44:32;4.15;;;1.38;;
69358;SDS011;56520;49.066;8.660;2023-05-10T03:46:58;4.80;;;1.60;;
69358;SDS011;56520;49.066;8.660;2023-05-10T03:49:24;3.90;;;1.50;;
69358;SDS011;56520;49.066;8.660;2023-05-10T03:51:49;4.03;;;1.50;;
69358;SDS011;56520;49.066;8.660;2023-05-10T03:54:15;3.88;;;1.40;;
69358;SDS011;56520;49.066;8.660;2023-05-10T03:56:40;6.72;;;1.60;;
69358;SDS011;56520;49.066;8.660;2023-05-10T03:59:05;4.72;;;1.50;;
69358;SDS011;56520;49.066;8.660;2023-05-10T04:01:34;3.85;;;1.33;;
69358;SDS011;56520;49.066;8.660;2023-05-10T04:04:00;5.10;;;1.70;;
69358;SDS011;56520;49.066;8.660;2023-05-10T04:06:25;4.68;;;1.60;;
69358;SDS011;56520;49.066;8.660;2023-05-10T04:08:50;4.35;;;1.40;;
69358;SDS011;56520;49.066;8.660;2023-05-10T04:11:16;4.60;;;1.52;;
69358;SDS011;56520;49.066;8.660;2023-05-10T04:13:41;6.45;;;1.50;;
69358;SDS011;56520;49.066;8.660;2023-05-10T04:16:10;4.88;;;1.60;;
69358;SDS011;56520;49.066;8.660;2023-05-10T04:18:35;4.38;;;1.60;;
69358;SDS011;56520;49.066;8.660;2023-05-10T04:21:01;5.30;;;1.52;;
69358;SDS011;56520;49.066;8.660;2023-05-10T04:23:26;3.47;;;1.30;;
69358;SDS011;56520;49.066;8.660;2023-05-10T04:25:52;3.75;;;1.20;;
69358;SDS011;56520;49.066;8.660;2023-05-10T04:28:23;4.07;;;1.50;;
69358;SDS011;56520;49.066;8.660;2023-05-10T04:30:48;4.32;;;1.60;;
69358;SDS011;56520;49.066;8.660;2023-05-10T04:33:14;5.38;;;1.83;;
69358;SDS011;56520;49.066;8.660;2023-05-10T04:35:40;3.97;;;1.30;;
69358;SDS011;56520;49.066;8.660;2023-05-10T04:38:09;3.60;;;1.33;;
69358;SDS011;56520;49.066;8.660;2023-05-10T04:40:35;5.13;;;1.60;;
69358;SDS011;56520;49.066;8.660;2023-05-10T04:43:00;4.40;;;1.35;;
69358;SDS011;56520;49.066;8.660;2023-05-10T04:45:28;3.58;;;1.20;;
69358;SDS011;56520;49.066;8.660;2023-05-10T04:47:54;4.45;;;1.50;;
69358;SDS011;56520;49.066;8.660;2023-05-10T04:50:19;4.05;;;1.30;;
69358;SDS011;56520;49.066;8.660;2023-05-10T04:52:47;3.78;;;1.20;;
69358;SDS011;56520;49.066;8.660;2023-05-10T04:55:13;3.95;;;1.42;;
69358;SDS011;56520;49.066;8.660;2023-05-10T04:57:38;4.70;;;1.30;;
69358;SDS011;56520;49.066;8.660;2023-05-10T05:00:04;4.03;;;1.30;;
69358;SDS011;56520;49.066;8.660;2023-05-10T05:02:30;3.88;;;1.23;;
69358;SDS011;56520;49.066;8.660;2023-05-10T05:04:56;4.07;;;1.48;;
69358;SDS011;56520;49.066;8.660;2023-05-10T05:07:22;3.50;;;1.40;;
69358;SDS011;56520;49.066;8.660;2023-05-10T05:09:48;4.43;;;1.10;;
69358;SDS011;56520;49.066;8.660;2023-05-10T05:12:13;3.78;;;1.38;;
69358;SDS011;56520;49.066;8.660;2023-05-10T05:14:39;4.50;;;1.40;;
69358;SDS011;56520;49.066;8.660;2023-05-10T05:17:05;3.45;;;1.23;;
69358;SDS011;56520;49.066;8.660;2023-05-10T05:19:31;5.30;;;1.58;;
69358;SDS011;56520;49.066;8.660;2023-05-10T05:21:56;4.65;;;1.23;;
69358;SDS011;56520;49.066;8.660;2023-05-10T05:24:21;3.90;;;1.38;;
69358;SDS011;56520;49.066;8.660;2023-05-10T05:26:47;3.78;;;1.20;;
69358;SDS011;56520;49.066;8.660;2023-05-10T05:29:13;4.90;;;1.30;;
69358;SDS011;56520;49.066;8.660;2023-05-10T05:31:38;4.03;;;1.52;;
69358;SDS011;56520;49.066;8.660;2023-05-10T05:34:03;4.72;;;1.70;;
69358;SDS011;56520;49.066;8.660;2023-05-10T05:36:29;3.75;;;1.27;;
69358;SDS011;56520;49.066;8.660;2023-05-10T05:38:56;4.65;;;1.30;;
69358;SDS011;56520;49.066;8.660;2023-05-10T05:41:21;3.75;;;1.33;;
69358;SDS011;56520;49.066;8.660;2023-05-10T05:43:47;4.10;;;1.40;;
69358;SDS011;56520;49.066;8.660;2023-05-10T05:46:12;3.05;;;1.10;;
69358;SDS011;56520;49.066;8.660;2023-05-10T05:48:38;3.78;;;1.30;;
69358;SDS011;56520;49.066;8.660;2023-05-10T05:51:03;5.80;;;1.60;;
69358;SDS011;56520;49.066;8.660;2023-05-10T05:53:28;3.83;;;1.30;;
69358;SDS011;56520;49.066;8.660;2023-05-10T05:55:54;5.82;;;1.30;;
69358;SDS011;56520;49.066;8.660;2023-05-10T05:58:21;3.67;;;1.10;;
69358;SDS011;56520;49.066;8.660;2023-05-10T06:00:47;3.60;;;1.10;;
69358;SDS011;56520;49.066;8.660;2023-05-10T06:03:12;5.40;;;1.10;;
69358;SDS011;56520;49.066;8.660;2023-05-10T06:05:38;3.42;;;1.20;;
69358;SDS011;56520;49.066;8.660;2023-05-10T06:08:03;4.00;;;1.15;;
69358;SDS011;56520;49.066;8.660;2023-05-10T06:10:29;4.78;;;1.20;;
69358;SDS011;56520;49.066;8.660;2023-05-10T06:12:55;5.22;;;1.15;;
69358;SDS011;56520;49.066;8.660;2023-05-10T06:15:21;4.03;;;1.00;;
69358;SDS011;56520;49.066;8.660;2023-05-10T06:17:46;3.17;;;1.13;;
69358;SDS011;56520;49.066;8.660;2023-05-10T06:20:14;2.15;;;0.90;;
69358;SDS011;56520;49.066;8.660;2023-05-10T06:22:40;4.63;;;1.30;;
69358;SDS011;56520;49.066;8.660;2023-05-10T06:25:05;2.28;;;0.93;;
69358;SDS011;56520;49.066;8.660;2023-05-10T06:27:31;4.82;;;0.80;;
69358;SDS011;56520;49.066;8.660;2023-05-10T06:29:57;5.85;;;1.02;;
69358;SDS011;56520;49.066;8.660;2023-05-10T06:32:22;3.03;;;0.98;;
69358;SDS011;56520;49.066;8.660;2023-05-10T06:34:48;4.20;;;1.00;;
69358;SDS011;56520;49.066;8.660;2023-05-10T06:37:13;2.45;;;0.82;;
69358;SDS011;56520;49.066;8.660;2023-05-10T06:39:39;2.75;;;0.90;;
69358;SDS011;56520;49.066;8.660;2023-05-10T06:42:04;1.42;;;0.70;;
69358;SDS011;56520;49.066;8.660;2023-05-10T06:44:32;3.03;;;0.95;;
69358;SDS011;56520;49.066;8.660;2023-05-10T06:46:58;2.92;;;0.98;;
69358;SDS011;56520;49.066;8.660;2023-05-10T06:49:23;3.75;;;1.00;;
69358;SDS011;56520;49.066;8.660;2023-05-10T06:51:49;6.13;;;1.02;;
69358;SDS011;56520;49.066;8.660;2023-05-10T06:54:14;2.70;;;0.95;;
69358;SDS011;56520;49.066;8.660;2023-05-10T06:56:39;1.88;;;0.73;;
69358;SDS011;56520;49.066;8.660;2023-05-10T06:59:05;1.67;;;0.73;;
69358;SDS011;56520;49.066;8.660;2023-05-10T07:01:31;2.30;;;1.00;;
69358;SDS011;56520;49.066;8.660;2023-05-10T07:03:57;2.72;;;0.95;;
69358;SDS011;56520;49.066;8.660;2023-05-10T07:06:22;8.07;;;0.90;;
69358;SDS011;56520;49.066;8.660;2023-05-10T07:08:47;4.45;;;0.90;;
69358;SDS011;56520;49.066;8.660;2023-05-10T07:11:13;1.73;;;0.77;;
69358;SDS011;56520;49.066;8.660;2023-05-10T07:13:38;1.83;;;0.80;;
69358;SDS011;56520;49.066;8.660;2023-05-10T07:16:06;2.88;;;0.82;;
69358;SDS011;56520;49.066;8.660;2023-05-10T07:18:32;2.35;;;0.90;;
69358;SDS011;56520;49.066;8.660;2023-05-10T07:20:58;1.73;;;0.70;;
69358;SDS011;56520;49.066;8.660;2023-05-10T07:23:23;2.33;;;0.80;;
69358;SDS011;56520;49.066;8.660;2023-05-10T07:25:49;2.70;;;0.90;;
69358;SDS011;56520;49.066;8.660;2023-05-10T07:28:22;2.17;;;0.70;;
69358;SDS011;56520;49.066;8.660;2023-05-10T07:30:49;3.67;;;0.90;;
69358;SDS011;56520;49.066;8.660;2023-05-10T07:33:15;2.20;;;0.80;;
69358;SDS011;56520;49.066;8.660;2023-05-10T07:35:40;4.68;;;0.70;;
69358;SDS011;56520;49.066;8.660;2023-05-10T07:38:06;2.05;;;0.90;;
69358;SDS011;56520;49.066;8.660;2023-05-10T07:40:32;1.70;;;0.70;;
69358;SDS011;56520;49.066;8.660;2023-05-10T07:42:57;1.75;;;0.70;;
69358;SDS011;56520;49.066;8.660;2023-05-10T07:45:23;1.48;;;0.70;;
69358;SDS011;56520;49.066;8.660;2023-05-10T07:47:49;2.30;;;0.82;;
69358;SDS011;56520;49.066;8.660;2023-05-10T07:50:14;2.33;;;0.80;;
69358;SDS011;56520;49.066;8.660;2023-05-10T07:52:40;2.13;;;0.80;;
69358;SDS011;56520;49.066;8.660;2023-05-10T07:55:06;1.33;;;0.70;;
69358;SDS011;56520;49.066;8.660;2023-05-10T07:57:33;2.65;;;0.70;;
69358;SDS011;56520;49.066;8.660;2023-05-10T07:59:59;1.55;;;0.60;;
69358;SDS011;56520;49.066;8.660;2023-05-10T08:02:24;1.80;;;0.77;;
69358;SDS011;56520;49.066;8.660;2023-05-10T08:04:50;1.38;;;0.55;;
69358;SDS011;56520;49.066;8.660;2023-05-10T08:07:15;1.42;;;0.70;;
69358;SDS011;56520;49.066;8.660;2023-05-10T08:09:41;1.73;;;0.57;;
69358;SDS011;56520;49.066;8.660;2023-05-10T08:12:06;2.00;;;0.88;;
69358;SDS011;56520;49.066;8.660;2023-05-10T08:14:32;1.55;;;0.60;;
69358;SDS011;56520;49.066;8.660;2023-05-10T08:16:57;1.13;;;0.57;;
69358;SDS011;56520;49.066;8.660;2023-05-10T08:19:22;2.88;;;0.70;;
69358;SDS011;56520;49.066;8.660;2023-05-10T08:21:48;1.33;;;0.60;;
69358;SDS011;56520;49.066;8.660;2023-05-10T08:24:14;3.28;;;0.90;;
69358;SDS011;56520;49.066;8.660;2023-05-10T08:26:39;1.63;;;0.63;;
69358;SDS011;56520;49.066;8.660;2023-05-10T08:29:05;2.35;;;0.90;;
69358;SDS011;56520;49.066;8.660;2023-05-10T08:31:30;1.25;;;0.70;;
69358;SDS011;56520;49.066;8.660;2023-05-10T08:33:56;0.55;;;0.50;;
69358;SDS011;56520;49.066;8.660;2023-05-10T08:36:21;1.92;;;0.70;;
69358;SDS011;56520;49.066;8.660;2023-05-10T08:38:51;1.30;;;0.60;;
69358;SDS011;56520;49.066;8.660;2023-05-10T08:41:20;1.65;;;0.70;;
69358;SDS011;56520;49.066;8.660;2023-05-10T08:43:49;1.92;;;0.70;;
69358;SDS011;56520;49.066;8.660;2023-05-10T08:46:19;1.48;;;0.63;;
69358;SDS011;56520;49.066;8.660;2023-05-10T08:48:46;1.90;;;0.70;;
69358;SDS011;56520;49.066;8.660;2023-05-10T08:51:17;2.08;;;0.80;;
69358;SDS011;56520;49.066;8.660;2023-05-10T08:53:44;2.00;;;0.70;;
69358;SDS011;56520;49.066;8.660;2023-05-10T08:56:11;1.45;;;0.52;;
69358;SDS011;56520;49.066;8.660;2023-05-10T08:58:37;2.25;;;0.70;;
69358;SDS011;56520;49.066;8.660;2023-05-10T09:01:03;2.88;;;0.70;;
69358;SDS011;56520;49.066;8.660;2023-05-10T09:03:30;2.08;;;0.75;;
69358;SDS011;56520;49.066;8.660;2023-05-10T09:05:56;1.42;;;0.70;;
69358;SDS011;56520;49.066;8.660;2023-05-10T09:08:25;1.58;;;0.65;;
69358;SDS011;56520;49.066;8.660;2023-05-10T09:10:51;1.98;;;0.70;;
69358;SDS011;56520;49.066;8.660;2023-05-10T09:13:17;3.60;;;1.05;;
69358;SDS011;56520;49.066;8.660;2023-05-10T09:15:44;2.40;;;0.73;;
69358;SDS011;56520;49.066;8.660;2023-05-10T09:18:10;3.22;;;0.90;;
69358;SDS011;56520;49.066;8.660;2023-05-10T09:20:36;2.22;;;0.77;;
69358;SDS011;56520;49.066;8.660;2023-05-10T09:23:01;1.15;;;0.50;;
69358;SDS011;56520;49.066;8.660;2023-05-10T09:25:26;1.52;;;0.60;;
69358;SDS011;56520;49.066;8.660;2023-05-10T09:27:52;1.63;;;0.70;;
69358;SDS011;56520;49.066;8.660;2023-05-10T09:30:27;1.00;;;0.60;;
69358;SDS011;56520;49.066;8.660;2023-05-10T09:32:55;1.42;;;0.65;;
69358;SDS011;56520;49.066;8.660;2023-05-10T09:35:22;1.85;;;0.70;;
69358;SDS011;56520;49.066;8.660;2023-05-10T09:37:50;0.98;;;0.55;;
69358;SDS011;56520;49.066;8.660;2023-05-10T09:40:19;1.38;;;0.70;;
69358;SDS011;56520;49.066;8.660;2023-05-10T09:42:52;1.65;;;0.60;;
69358;SDS011;56520;49.066;8.660;2023-05-10T09:45:21;1.20;;;0.60;;
69358;SDS011;56520;49.066;8.660;2023-05-10T09:47:47;1.02;;;0.60;;
69358;SDS011;56520;49.066;8.660;2023-05-10T09:50:13;2.42;;;0.70;;
69358;SDS011;56520;49.066;8.660;2023-05-10T09:55:22;2.08;;;0.80;;
69358;SDS011;56520;49.066;8.660;2023-05-10T09:57:48;2.40;;;0.70;;
69358;SDS011;56520;49.066;8.660;2023-05-10T10:00:27;1.13;;;0.63;;
69358;SDS011;56520;49.066;8.660;2023-05-10T10:02:57;1.42;;;0.68;;
69358;SDS011;56520;49.066;8.660;2023-05-10T10:05:30;1.70;;;0.75;;
69358;SDS011;56520;49.066;8.660;2023-05-10T10:07:56;1.80;;;0.60;;
69358;SDS011;56520;49.066;8.660;2023-05-10T10:10:23;3.22;;;0.70;;
69358;SDS011;56520;49.066;8.660;2023-05-10T10:12:52;2.10;;;0.77;;
69358;SDS011;56520;49.066;8.660;2023-05-10T10:15:18;0.98;;;0.60;;
69358;SDS011;56520;49.066;8.660;2023-05-10T10:17:48;2.55;;;0.68;;
69358;SDS011;56520;49.066;8.660;2023-05-10T10:20:15;1.15;;;0.60;;
69358;SDS011;56520;49.066;8.660;2023-05-10T10:22:41;1.92;;;0.60;;
69358;SDS011;56520;49.066;8.660;2023-05-10T10:25:07;1.45;;;0.60;;
69358;SDS011;56520;49.066;8.660;2023-05-10T10:37:58;3.05;;;0.63;;
69358;SDS011;56520;49.066;8.660;2023-05-10T10:40:26;0.35;;;0.30;;
69358;SDS011;56520;49.066;8.660;2023-05-10T10:42:52;1.23;;;0.65;;
69358;SDS011;56520;49.066;8.660;2023-05-10T10:45:18;1.08;;;0.60;;
69358;SDS011;56520;49.066;8.660;2023-05-10T10:47:45;1.55;;;0.65;;
69358;SDS011;56520;49.066;8.660;2023-05-10T10:50:10;2.53;;;0.80;;
69358;SDS011;56520;49.066;8.660;2023-05-10T10:52:40;2.45;;;0.80;;
69358;SDS011;56520;49.066;8.660;2023-05-10T10:57:46;4.82;;;0.82;;
69358;SDS011;56520;49.066;8.660;2023-05-10T11:00:25;2.70;;;0.80;;
69358;SDS011;56520;49.066;8.660;2023-05-10T11:10:38;1.73;;;0.68;;
69358;SDS011;56520;49.066;8.660;2023-05-10T11:13:05;1.75;;;0.80;;
69358;SDS011;56520;49.066;8.660;2023-05-10T11:15:40;1.33;;;0.60;;
69358;SDS011;56520;49.066;8.660;2023-05-10T11:18:16;2.00;;;0.68;;
69358;SDS011;56520;49.066;8.660;2023-05-10T11:21:07;1.88;;;0.82;;
69358;SDS011;56520;49.066;8.660;2023-05-10T11:26:12;2.10;;;0.90;;
69358;SDS011;56520;49.066;8.660;2023-05-10T11:28:42;2.35;;;1.00;;
69358;SDS011;56520;49.066;8.660;2023-05-10T11:31:08;3.55;;;1.10;;
69358;SDS011;56520;49.066;8.660;2023-05-10T11:33:43;2.55;;;0.90;;
69358;SDS011;56520;49.066;8.660;2023-05-10T11:36:14;4.82;;;1.00;;
69358;SDS011;56520;49.066;8.660;2023-05-10T11:38:40;2.50;;;0.90;;
69358;SDS011;56520;49.066;8.660;2023-05-10T11:41:07;3.58;;;1.00;;
69358;SDS011;56520;49.066;8.660;2023-05-10T11:43:34;3.03;;;1.10;;
69358;SDS011;56520;49.066;8.660;2023-05-10T11:46:00;5.45;;;1.10;;
69358;SDS011;56520;49.066;8.660;2023-05-10T11:48:25;2.75;;;0.90;;
69358;SDS011;56520;49.066;8.660;2023-05-10T11:50:51;2.33;;;0.93;;
69358;SDS011;56520;49.066;8.660;2023-05-10T11:53:16;2.70;;;0.90;;
69358;SDS011;56520;49.066;8.660;2023-05-10T11:55:42;4.18;;;1.33;;
69358;SDS011;56520;49.066;8.660;2023-05-10T11:58:07;2.45;;;1.00;;
69358;SDS011;56520;49.066;8.660;2023-05-10T12:00:32;2.13;;;0.88;;
69358;SDS011;56520;49.066;8.660;2023-05-10T12:02:59;3.25;;;0.90;;
69358;SDS011;56520;49.066;8.660;2023-05-10T12:05:25;2.88;;;0.80;;
69358;SDS011;56520;49.066;8.660;2023-05-10T12:07:51;2.35;;;0.93;;
69358;SDS011;56520;49.066;8.660;2023-05-10T12:10:17;5.15;;;1.00;;
69358;SDS011;56520;49.066;8.660;2023-05-10T12:12:51;1.88;;;0.80;;
69358;SDS011;56520;49.066;8.660;2023-05-10T12:15:18;1.40;;;0.70;;
69358;SDS011;56520;49.066;8.660;2023-05-10T12:17:51;2.55;;;0.93;;
69358;SDS011;56520;49.066;8.660;2023-05-10T12:20:17;2.58;;;0.80;;
69358;SDS011;56520;49.066;8.660;2023-05-10T12:22:51;3.33;;;1.00;;
69358;SDS011;56520;49.066;8.660;2023-05-10T12:25:22;2.10;;;0.65;;
69358;SDS011;56520;49.066;8.660;2023-05-10T12:27:52;3.03;;;0.90;;
69358;SDS011;56520;49.066;8.660;2023-05-10T12:30:20;3.17;;;0.85;;
69358;SDS011;56520;49.066;8.660;2023-05-10T12:33:06;2.42;;;0.93;;
69358;SDS011;56520;49.066;8.660;2023-05-10T12:35:43;2.80;;;0.88;;
69358;SDS011;56520;49.066;8.660;2023-05-10T12:41:15;2.67;;;0.70;;
69358;SDS011;56520;49.066;8.660;2023-05-10T12:43:42;1.38;;;0.55;;
69358;SDS011;56520;49.066;8.660;2023-05-10T12:46:08;1.42;;;0.60;;
69358;SDS011;56520;49.066;8.660;2023-05-10T12:48:35;2.05;;;0.60;;
69358;SDS011;56520;49.066;8.660;2023-05-10T12:51:01;2.28;;;0.60;;
69358;SDS011;56520;49.066;8.660;2023-05-10T12:53:27;3.30;;;0.70;;
69358;SDS011;56520;49.066;8.660;2023-05-10T12:55:56;4.22;;;0.80;;
69358;SDS011;56520;49.066;8.660;2023-05-10T12:58:21;2.65;;;0.90;;
69358;SDS011;56520;49.066;8.660;2023-05-10T13:00:47;3.03;;;0.90;;
69358;SDS011;56520;49.066;8.660;2023-05-10T13:03:12;1.33;;;0.60;;
69358;SDS011;56520;49.066;8.660;2023-05-10T13:05:38;3.75;;;0.77;;
69358;SDS011;56520;49.066;8.660;2023-05-10T13:08:03;1.33;;;0.63;;
69358;SDS011;56520;49.066;8.660;2023-05-10T13:10:30;1.58;;;0.65;;
69358;SDS011;56520;49.066;8.660;2023-05-10T13:12:56;2.95;;;0.77;;
69358;SDS011;56520;49.066;8.660;2023-05-10T13:15:22;2.67;;;0.70;;
69358;SDS011;56520;49.066;8.660;2023-05-10T13:17:48;2.22;;;0.60;;
69358;SDS011;56520;49.066;8.660;2023-05-10T13:20:13;1.45;;;0.63;;
69358;SDS011;56520;49.066;8.660;2023-05-10T13:22:39;1.08;;;0.60;;
69358;SDS011;56520;49.066;8.660;2023-05-10T13:25:05;2.40;;;0.77;;
69358;SDS011;56520;49.066;8.660;2023-05-10T13:27:31;1.30;;;0.60;;
69358;SDS011;56520;49.066;8.660;2023-05-10T13:29:56;2.53;;;0.80;;
69358;SDS011;56520;49.066;8.660;2023-05-10T13:32:24;1.75;;;0.70;;
69358;SDS011;56520;49.066;8.660;2023-05-10T13:34:50;1.52;;;0.70;;
69358;SDS011;56520;49.066;8.660;2023-05-10T13:37:16;1.77;;;0.70;;
69358;SDS011;56520;49.066;8.660;2023-05-10T13:39:41;2.38;;;0.80;;
69358;SDS011;56520;49.066;8.660;2023-05-10T13:42:07;3.30;;;0.90;;
69358;SDS011;56520;49.066;8.660;2023-05-10T13:44:32;3.33;;;0.70;;
69358;SDS011;56520;49.066;8.660;2023-05-10T13:46:58;5.15;;;0.80;;
69358;SDS011;56520;49.066;8.660;2023-05-10T13:49:24;0.80;;;0.52;;
69358;SDS011;56520;49.066;8.660;2023-05-10T13:51:49;1.00;;;0.50;;
69358;SDS011;56520;49.066;8.660;2023-05-10T13:54:15;3.95;;;0.70;;
69358;SDS011;56520;49.066;8.660;2023-05-10T13:56:44;1.80;;;0.47;;
69358;SDS011;56520;49.066;8.660;2023-05-10T13:59:09;1.17;;;0.50;;
69358;SDS011;56520;49.066;8.660;2023-05-10T14:01:35;4.25;;;0.70;;
69358;SDS011;56520;49.066;8.660;2023-05-10T14:04:01;2.30;;;0.57;;
69358;SDS011;56520;49.066;8.660;2023-05-10T14:06:26;1.13;;;0.50;;
69358;SDS011;56520;49.066;8.660;2023-05-10T14:08:52;1.67;;;0.57;;
69358;SDS011;56520;49.066;8.660;2023-05-10T14:11:18;1.38;;;0.55;;
69358;SDS011;56520;49.066;8.660;2023-05-10T14:13:43;1.52;;;0.70;;
69358;SDS011;56520;49.066;8.660;2023-05-10T14:16:09;0.60;;;0.40;;
69358;SDS011;56520;49.066;8.660;2023-05-10T14:18:34;1.55;;;0.60;;
69358;SDS011;56520;49.066;8.660;2023-05-10T14:21:01;1.08;;;0.60;;
69358;SDS011;56520;49.066;8.660;2023-05-10T14:23:27;1.13;;;0.60;;
69358;SDS011;56520;49.066;8.660;2023-05-10T14:25:53;0.60;;;0.40;;
69358;SDS011;56520;49.066;8.660;2023-05-10T14:28:19;1.63;;;0.60;;
69358;SDS011;56520;49.066;8.660;2023-05-10T14:30:45;2.92;;;0.65;;
69358;SDS011;56520;49.066;8.660;2023-05-10T14:33:11;2.40;;;0.63;;
69358;SDS011;56520;49.066;8.660;2023-05-10T14:35:37;2.20;;;0.60;;
69358;SDS011;56520;49.066;8.660;2023-05-10T14:38:02;2.53;;;0.60;;
69358;SDS011;56520;49.066;8.660;2023-05-10T14:40:31;2.17;;;0.55;;
69358;SDS011;56520;49.066;8.660;2023-05-10T14:42:56;0.70;;;0.50;;
69358;SDS011;56520;49.066;8.660;2023-05-10T14:45:22;0.82;;;0.50;;
69358;SDS011;56520;49.066;8.660;2023-05-10T14:47:48;1.17;;;0.50;;
69358;SDS011;56520;49.066;8.660;2023-05-10T14:50:14;1.05;;;0.52;;
69358;SDS011;56520;49.066;8.660;2023-05-10T14:52:41;1.30;;;0.60;;
69358;SDS011;56520;49.066;8.660;2023-05-10T14:55:06;1.33;;;0.45;;
69358;SDS011;56520;49.066;8.660;2023-05-10T14:57:32;2.15;;;0.70;;
69358;SDS011;56520;49.066;8.660;2023-05-10T14:59:58;1.15;;;0.57;;
69358;SDS011;56520;49.066;8.660;2023-05-10T15:02:23;1.52;;;0.63;;
69358;SDS011;56520;49.066;8.660;2023-05-10T15:04:49;2.20;;;0.57;;
69358;SDS011;56520;49.066;8.660;2023-05-10T15:07:14;0.57;;;0.43;;
69358;SDS011;56520;49.066;8.660;2023-05-10T15:09:41;3.33;;;0.68;;
69358;SDS011;56520;49.066;8.660;2023-05-10T15:12:06;3.88;;;0.60;;
69358;SDS011;56520;49.066;8.660;2023-05-10T15:14:32;2.78;;;0.80;;
69358;SDS011;56520;49.066;8.660;2023-05-10T15:16:58;3.15;;;0.60;;
69358;SDS011;56520;49.066;8.660;2023-05-10T15:19:23;1.60;;;0.75;;
69358;SDS011;56520;49.066;8.660;2023-05-10T15:21:49;0.95;;;0.40;;
69358;SDS011;56520;49.066;8.660;2023-05-10T15:24:14;1.08;;;0.60;;
69358;SDS011;56520;49.066;8.660;2023-05-10T15:26:40;0.77;;;0.52;;
69358;SDS011;56520;49.066;8.660;2023-05-10T15:29:05;2.45;;;0.60;;
69358;SDS011;56520;49.066;8.660;2023-05-10T15:31:30;1.50;;;0.68;;